LFBG

Cognac-Châteaubernard (BA 709) Air Base

Airport
ICAO code
LFBG
IATA Code
CNG
Summary
ICAO Region
EUR
ICAO Territory
Location

, Poitou-Charentes

Serving
Cognac
Elevation
102 ft
Coordinates
45° 39' 30" N , 0° 19' 3" W
Metar
Observation
LFBG 012330Z AUTO 03011KT 9999 OVC043 07/05 Q1022
Station
Cognac
Date/Time
2022-12-01 23:30:00
Wind direction
30°
Wind speed
11 kts
Lowest cloud amount
overcast
Temperature
7°C
Dew point
5°C
Humidity
87%
QNH
1022 hPa
Weather condition
n/a

Runways

Designator Length Width Surface Rops
9/27 1875 60 MAC No/No
5/23 2423 45 PEM No/No

Airport map

Aerial View

SKYbrary Partners:

Safety knowledge contributed by: